createdAt,value
2023-04-14T00:01:49.145Z,69.69
2023-04-14T00:04:16.604Z,69.70
2023-04-14T00:06:43.576Z,69.65
2023-04-14T00:09:10.748Z,69.80
2023-04-14T00:11:37.797Z,69.54
2023-04-14T00:14:04.710Z,69.88
2023-04-14T00:16:31.771Z,69.82
2023-04-14T00:18:59.377Z,70.13
2023-04-14T00:21:27.254Z,70.16
2023-04-14T00:23:54.044Z,70.18
2023-04-14T00:26:20.973Z,70.21
2023-04-14T00:28:48.057Z,70.13
2023-04-14T00:31:16.428Z,69.98
2023-04-14T00:33:43.250Z,69.95
2023-04-14T00:36:10.057Z,69.89
2023-04-14T00:38:39.872Z,70.20
2023-04-14T00:41:07.095Z,70.13
2023-04-14T00:43:33.837Z,70.29
2023-04-14T00:46:01.058Z,69.96
2023-04-14T00:48:28.027Z,70.19
2023-04-14T00:50:54.826Z,70.22
2023-04-14T00:53:21.875Z,70.21
2023-04-14T00:55:49.886Z,70.42
2023-04-14T00:58:16.642Z,70.12
2023-04-14T01:00:43.445Z,70.11
2023-04-14T01:03:10.959Z,70.49
2023-04-14T01:05:37.935Z,70.51
2023-04-14T01:08:05.177Z,70.76
2023-04-14T01:10:39.217Z,70.43
2023-04-14T01:13:35.034Z,70.70
2023-04-14T01:16:18.404Z,70.71
2023-04-14T01:19:10.285Z,70.58
2023-04-14T01:21:41.749Z,70.65
2023-04-14T01:24:26.710Z,71.14
2023-04-14T01:27:25.052Z,71.00
2023-04-14T01:30:08.001Z,70.85
2023-04-14T01:32:36.769Z,71.00
2023-04-14T01:35:17.631Z,70.70
2023-04-14T01:37:49.010Z,71.10
2023-04-14T01:40:19.031Z,71.10
2023-04-14T01:42:52.944Z,70.93
2023-04-14T01:45:25.490Z,70.89
2023-04-14T01:47:53.683Z,71.01
2023-04-14T01:50:21.524Z,70.89
2023-04-14T01:52:54.284Z,71.25
2023-04-14T01:55:21.538Z,71.18
2023-04-14T01:57:50.416Z,71.24
2023-04-14T02:00:18.287Z,70.92
2023-04-14T02:02:47.109Z,71.05
2023-04-14T02:05:16.206Z,71.15
2023-04-14T02:07:46.253Z,71.33
2023-04-14T02:10:15.973Z,71.00
2023-04-14T02:12:43.459Z,71.20
2023-04-14T02:15:13.740Z,71.00
2023-04-14T02:17:42.281Z,71.30
2023-04-14T02:20:10.189Z,71.56
2023-04-14T02:22:37.182Z,71.01
2023-04-14T02:25:04.362Z,71.04
2023-04-14T02:27:37.679Z,71.17
2023-04-14T02:30:12.017Z,71.28
2023-04-14T02:32:40.572Z,71.51
2023-04-14T02:35:12.435Z,71.41
2023-04-14T02:37:47.311Z,71.77
2023-04-14T02:40:19.475Z,71.79
2023-04-14T02:42:48.771Z,71.64
2023-04-14T02:45:21.475Z,71.98
2023-04-14T02:47:53.096Z,71.64
2023-04-14T02:50:21.134Z,71.86
2023-04-14T02:52:59.479Z,71.95
2023-04-14T02:55:33.819Z,71.93
2023-04-14T02:58:01.155Z,71.72
2023-04-14T03:00:30.681Z,71.72
2023-04-14T03:02:58.305Z,71.94
2023-04-14T03:05:25.622Z,72.26
2023-04-14T03:08:03.669Z,71.88
2023-04-14T03:10:31.199Z,72.21
2023-04-14T03:12:59.045Z,72.28
2023-04-14T03:15:26.849Z,72.23
2023-04-14T03:17:57.426Z,72.46
2023-04-14T03:20:26.473Z,72.16
2023-04-14T03:23:06.801Z,72.54
2023-04-14T03:25:40.859Z,72.26
2023-04-14T03:28:16.073Z,72.38
2023-04-14T03:30:48.164Z,72.49
2023-04-14T03:33:20.065Z,72.37
2023-04-14T03:35:48.252Z,72.26
2023-04-14T03:38:15.942Z,72.01
2023-04-14T03:40:47.914Z,71.94
2023-04-14T03:43:22.733Z,72.00
2023-04-14T03:45:57.107Z,71.98
2023-04-14T03:48:27.514Z,72.09
2023-04-14T03:50:55.119Z,71.98
2023-04-14T03:53:22.114Z,72.09
2023-04-14T03:55:51.678Z,72.08
2023-04-14T03:58:18.880Z,72.09
2023-04-14T04:00:47.947Z,72.08
2023-04-14T04:03:15.933Z,71.95
2023-04-14T04:05:43.584Z,72.00
2023-04-14T04:08:11.590Z,72.19
2023-04-14T04:10:39.236Z,71.98
2023-04-14T04:13:08.615Z,72.29
2023-04-14T04:15:36.817Z,72.38
2023-04-14T04:18:04.053Z,72.48
2023-04-14T04:20:32.502Z,72.24
2023-04-14T04:23:01.853Z,72.71
2023-04-14T04:25:28.897Z,72.96
2023-04-14T04:28:03.278Z,73.04
2023-04-14T04:30:31.708Z,73.56
2023-04-14T04:32:59.381Z,73.90
2023-04-14T04:35:26.518Z,74.01
2023-04-14T04:37:53.980Z,74.41
2023-04-14T04:40:21.121Z,74.77
2023-04-14T04:42:50.017Z,74.93
2023-04-14T04:45:36.674Z,75.16
2023-04-14T04:48:04.633Z,75.44
2023-04-14T04:50:31.490Z,75.57
2023-04-14T04:57:42.359Z,76.18
2023-04-14T05:00:09.818Z,76.05
2023-04-14T05:02:36.637Z,76.23
2023-04-14T05:05:04.070Z,76.20
2023-04-14T05:07:30.783Z,76.45
2023-04-14T05:09:57.562Z,76.28
2023-04-14T05:12:24.284Z,76.08
2023-04-14T05:14:51.038Z,75.95
2023-04-14T05:17:17.742Z,76.15
2023-04-14T05:19:44.493Z,76.04
2023-04-14T05:22:13.078Z,75.82
2023-04-14T05:24:40.087Z,75.45
2023-04-14T05:27:14.157Z,75.61
2023-04-14T05:29:42.110Z,75.47
2023-04-14T05:32:08.891Z,75.47
2023-04-14T05:34:35.911Z,75.34
2023-04-14T05:37:03.267Z,75.74
2023-04-14T05:39:29.996Z,75.75
2023-04-14T05:41:56.962Z,75.72
2023-04-14T05:44:24.059Z,75.44
2023-04-14T05:46:50.930Z,75.51
2023-04-14T05:49:17.813Z,75.48
2023-04-14T05:51:44.490Z,75.47
2023-04-14T05:54:11.193Z,75.58
2023-04-14T05:56:37.900Z,75.47
2023-04-14T05:59:04.661Z,75.70
2023-04-14T06:01:31.456Z,75.34
2023-04-14T06:03:58.586Z,75.28
2023-04-14T06:06:26.437Z,75.40
2023-04-14T06:08:53.134Z,75.25
2023-04-14T06:11:19.852Z,75.06
2023-04-14T06:13:46.635Z,75.33
2023-04-14T06:16:13.497Z,75.25
2023-04-14T06:18:40.440Z,74.89
2023-04-14T06:21:07.974Z,74.89
2023-04-14T06:23:34.683Z,74.89
2023-04-14T06:26:01.546Z,74.58
2023-04-14T06:28:28.363Z,74.68
2023-04-14T06:30:55.204Z,74.73
2023-04-14T06:33:21.914Z,74.71
2023-04-14T06:35:48.783Z,74.79
2023-04-14T06:38:16.067Z,74.62
2023-04-14T06:40:44.136Z,74.88
2023-04-14T06:43:11.257Z,74.55
2023-04-14T06:45:38.267Z,74.64
2023-04-14T06:48:05.570Z,74.94
2023-04-14T06:50:32.356Z,75.01
2023-04-14T06:53:01.580Z,74.99
2023-04-14T06:55:28.338Z,75.03
2023-04-14T06:57:55.084Z,75.25
2023-04-14T07:00:22.650Z,75.20
2023-04-14T07:03:07.861Z,75.42
2023-04-14T07:05:34.657Z,75.28
2023-04-14T07:08:01.656Z,75.59
2023-04-14T07:10:28.421Z,75.66
2023-04-14T07:12:55.185Z,75.82
2023-04-14T07:15:21.877Z,75.95
2023-04-14T07:17:48.793Z,76.34
2023-04-14T07:20:15.622Z,76.18
2023-04-14T07:22:42.350Z,76.20
2023-04-14T07:25:09.436Z,76.29
2023-04-14T07:27:36.459Z,76.54
2023-04-14T07:30:03.886Z,76.89
2023-04-14T07:32:31.360Z,77.11
2023-04-14T07:34:59.349Z,77.33
2023-04-14T07:37:26.656Z,77.60
2023-04-14T07:39:53.401Z,77.90
2023-04-14T07:42:20.407Z,77.91
2023-04-14T07:44:47.161Z,77.92
2023-04-14T07:47:13.893Z,78.16
2023-04-14T07:49:40.778Z,78.22
2023-04-14T07:52:07.557Z,78.08
2023-04-14T07:54:34.992Z,78.42
2023-04-14T07:57:01.706Z,78.54
2023-04-14T07:59:28.448Z,78.52
2023-04-14T08:01:55.482Z,78.68
2023-04-14T08:04:22.487Z,78.63
2023-04-14T08:06:49.309Z,78.74
2023-04-14T08:09:17.426Z,78.94
2023-04-14T08:11:44.192Z,78.79
2023-04-14T08:14:10.944Z,78.72
2023-04-14T08:16:37.885Z,79.05
2023-04-14T08:19:05.365Z,79.03
2023-04-14T08:21:32.675Z,79.28
2023-04-14T08:24:02.501Z,79.02
2023-04-14T08:26:29.222Z,79.20
2023-04-14T08:28:56.323Z,79.17
2023-04-14T08:31:24.425Z,79.27
2023-04-14T08:33:53.122Z,79.00
2023-04-14T08:36:20.788Z,79.02
2023-04-14T08:38:50.139Z,78.98
2023-04-14T08:41:19.566Z,79.04
2023-04-14T08:43:46.523Z,79.45
2023-04-14T08:46:14.812Z,79.31
2023-04-14T08:48:47.987Z,79.52
2023-04-14T08:51:22.583Z,79.72
2023-04-14T08:53:51.676Z,80.15
2023-04-14T08:56:18.912Z,80.21
2023-04-14T08:58:45.948Z,80.22
2023-04-14T09:01:13.120Z,80.33
2023-04-14T09:03:41.104Z,80.19
2023-04-14T09:06:08.051Z,80.67
2023-04-14T09:08:35.943Z,80.88
2023-04-14T09:11:03.800Z,80.89
2023-04-14T09:13:31.415Z,81.04
2023-04-14T09:16:00.219Z,81.19
2023-04-14T09:18:28.378Z,81.56
2023-04-14T09:21:29.984Z,81.14
2023-04-14T09:23:42.728Z,81.41
2023-04-14T09:26:10.738Z,81.42
2023-04-14T09:28:37.736Z,81.69
2023-04-14T09:31:05.341Z,81.52
2023-04-14T09:33:32.809Z,81.63
2023-04-14T09:35:59.680Z,81.92
2023-04-14T09:38:37.767Z,81.80
2023-04-14T09:41:08.470Z,82.08
2023-04-14T09:43:36.947Z,82.31
2023-04-14T09:46:10.879Z,82.18
2023-04-14T09:48:58.028Z,82.34
2023-04-14T09:51:29.162Z,82.43
2023-04-14T09:54:02.623Z,82.25
2023-04-14T09:56:29.669Z,82.50
2023-04-14T09:59:02.436Z,82.65
2023-04-14T10:01:32.480Z,82.76
2023-04-14T10:04:01.563Z,82.87
2023-04-14T10:06:28.336Z,82.83
2023-04-14T10:08:56.093Z,82.83
2023-04-14T10:11:41.104Z,82.77
2023-04-14T10:14:08.147Z,82.83
2023-04-14T10:16:35.065Z,82.75
2023-04-14T10:19:02.925Z,82.82
2023-04-14T10:21:30.345Z,82.30
2023-04-14T10:23:58.012Z,82.38
2023-04-14T10:26:25.996Z,82.67
2023-04-14T10:28:54.292Z,82.40
2023-04-14T10:31:25.672Z,82.46
2023-04-14T10:33:52.721Z,82.58
2023-04-14T10:36:28.071Z,82.85
2023-04-14T10:39:03.360Z,82.85
2023-04-14T10:41:44.408Z,82.95
2023-04-14T10:44:28.781Z,82.98
2023-04-14T10:46:56.908Z,82.83
2023-04-14T10:49:31.462Z,83.22
2023-04-14T10:51:59.942Z,83.15
2023-04-14T10:54:26.862Z,83.06
2023-04-14T10:57:12.654Z,82.81
2023-04-14T10:59:43.118Z,83.10
2023-04-14T11:02:30.726Z,83.02
2023-04-14T11:05:09.392Z,83.21
2023-04-14T11:07:46.447Z,83.36
2023-04-14T11:10:19.324Z,83.49
2023-04-14T11:12:47.738Z,83.17
2023-04-14T11:15:17.593Z,83.60
2023-04-14T11:17:45.652Z,83.50
2023-04-14T11:20:20.364Z,83.32
2023-04-14T11:22:51.644Z,83.52
2023-04-14T11:25:27.735Z,83.49
2023-04-14T11:27:54.646Z,83.37
2023-04-14T11:30:22.252Z,83.44
2023-04-14T11:32:57.511Z,83.22
2023-04-14T11:35:27.695Z,83.31
2023-04-14T11:38:02.006Z,83.61
2023-04-14T11:40:29.684Z,83.73
2023-04-14T11:42:57.945Z,83.71
2023-04-14T11:45:29.378Z,83.48
2023-04-14T11:47:58.684Z,83.85
2023-04-14T11:50:26.492Z,83.87
2023-04-14T11:52:55.525Z,83.80
2023-04-14T11:55:23.553Z,83.72
2023-04-14T11:57:50.578Z,83.47
2023-04-14T12:00:17.764Z,83.89
2023-04-14T12:02:45.946Z,83.87
2023-04-14T12:05:14.149Z,83.58
2023-04-14T12:07:45.995Z,83.53
2023-04-14T12:10:13.671Z,83.64
2023-04-14T12:12:41.424Z,83.85
2023-04-14T12:15:08.987Z,83.83
2023-04-14T12:17:36.764Z,83.48
2023-04-14T12:20:05.657Z,83.70
2023-04-14T12:22:32.549Z,83.72
2023-04-14T12:24:59.466Z,83.57
2023-04-14T12:27:27.726Z,83.93
2023-04-14T12:29:54.744Z,83.76
2023-04-14T12:32:22.953Z,84.01
2023-04-14T12:34:58.120Z,83.95
2023-04-14T12:37:28.913Z,83.91
2023-04-14T12:40:01.045Z,83.83
2023-04-14T12:42:29.275Z,84.04
2023-04-14T12:45:00.599Z,83.82
2023-04-14T12:47:29.206Z,83.58
2023-04-14T12:49:57.122Z,83.89
2023-04-14T12:52:38.381Z,83.75
2023-04-14T12:55:06.961Z,83.77
2023-04-14T12:57:34.557Z,84.06
2023-04-14T13:00:02.244Z,83.77
2023-04-14T13:02:33.556Z,84.07
2023-04-14T13:05:00.588Z,84.27
2023-04-14T13:07:27.548Z,84.38
2023-04-14T13:09:54.446Z,84.40
2023-04-14T13:12:21.289Z,84.25
2023-04-14T13:14:48.204Z,84.19
2023-04-14T13:17:15.184Z,84.49
2023-04-14T13:19:42.258Z,84.43
2023-04-14T13:22:09.150Z,84.50
2023-04-14T13:24:36.610Z,84.58
2023-04-14T13:27:03.576Z,84.58
2023-04-14T13:29:32.636Z,84.72
2023-04-14T13:32:11.912Z,84.27
2023-04-14T13:34:39.665Z,84.43
2023-04-14T13:37:06.651Z,84.60
2023-04-14T13:39:33.551Z,84.73
2023-04-14T13:42:00.414Z,84.77
2023-04-14T13:44:27.769Z,84.58
2023-04-14T13:46:55.546Z,84.79
2023-04-14T13:49:22.353Z,84.71
2023-04-14T13:51:49.130Z,84.71
2023-04-14T13:54:15.989Z,84.67
2023-04-14T13:56:42.819Z,84.72
2023-04-14T13:59:09.722Z,84.70
2023-04-14T14:01:36.643Z,84.65
2023-04-14T14:04:03.623Z,84.85
2023-04-14T14:06:31.501Z,84.93
2023-04-14T14:09:05.476Z,84.51
2023-04-14T14:11:33.490Z,84.70
2023-04-14T14:14:00.795Z,84.96
2023-04-14T14:18:57.714Z,85.14
2023-04-14T14:21:24.758Z,85.20
2023-04-14T14:23:51.592Z,85.05
2023-04-14T14:26:18.431Z,85.20
2023-04-14T14:28:45.953Z,85.18
2023-04-14T14:31:16.557Z,85.10
2023-04-14T14:33:43.468Z,85.06
2023-04-14T14:36:10.603Z,85.20
2023-04-14T14:38:37.534Z,85.51
2023-04-14T14:41:05.153Z,85.58
2023-04-14T14:43:31.952Z,85.67
2023-04-14T14:45:58.839Z,85.77
2023-04-14T14:48:25.872Z,85.49
2023-04-14T14:50:52.798Z,85.70
2023-04-14T14:53:19.538Z,85.88
2023-04-14T14:55:46.635Z,86.08
2023-04-14T14:58:13.574Z,85.98
2023-04-14T15:00:40.381Z,85.78
2023-04-14T15:03:07.777Z,86.07
2023-04-14T15:05:34.864Z,86.21
2023-04-14T15:08:01.732Z,85.95
2023-04-14T15:10:28.615Z,86.08
2023-04-14T15:12:55.488Z,86.17
2023-04-14T15:15:22.361Z,86.12
2023-04-14T15:17:49.520Z,86.28
2023-04-14T15:20:16.557Z,86.16
2023-04-14T15:22:43.326Z,86.68
2023-04-14T15:25:10.351Z,86.85
2023-04-14T15:27:37.269Z,86.93
2023-04-14T15:30:04.409Z,86.63
2023-04-14T15:32:31.316Z,86.69
2023-04-14T15:34:58.154Z,86.75
2023-04-14T15:37:26.346Z,86.94
2023-04-14T15:39:53.274Z,86.92
2023-04-14T15:42:20.100Z,86.83
2023-04-14T15:44:46.891Z,87.12
2023-04-14T15:47:13.697Z,86.83
2023-04-14T15:49:40.614Z,86.96
2023-04-14T15:52:07.373Z,87.13
2023-04-14T15:54:34.276Z,87.18
2023-04-14T15:57:02.524Z,87.35
2023-04-14T15:59:29.854Z,87.54
2023-04-14T16:01:56.822Z,87.48
2023-04-14T16:04:24.107Z,87.34
2023-04-14T16:06:51.546Z,87.51
2023-04-14T16:09:18.304Z,87.56
2023-04-14T16:11:45.175Z,87.51
2023-04-14T16:14:14.782Z,87.76
2023-04-14T16:16:43.460Z,87.47
2023-04-14T16:19:10.632Z,87.59
2023-04-14T16:21:37.554Z,87.64
2023-04-14T16:24:04.408Z,87.56
2023-04-14T16:26:31.174Z,87.74
2023-04-14T16:29:00.189Z,87.96
2023-04-14T16:31:27.501Z,87.68
2023-04-14T16:33:54.763Z,87.85
2023-04-14T16:36:23.999Z,87.83
2023-04-14T16:38:51.763Z,87.98
2023-04-14T16:41:18.612Z,87.86
2023-04-14T16:43:45.557Z,88.12
2023-04-14T16:46:12.437Z,87.90
2023-04-14T16:48:39.349Z,88.31
2023-04-14T16:51:08.643Z,88.14
2023-04-14T16:53:36.727Z,88.61
2023-04-14T16:56:08.656Z,88.64
2023-04-14T16:58:37.231Z,88.35
2023-04-14T17:01:05.344Z,88.42
2023-04-14T17:03:35.479Z,88.77
2023-04-14T17:06:03.214Z,88.55
2023-04-14T17:08:30.124Z,88.83
2023-04-14T17:10:57.069Z,88.26
2023-04-14T17:13:23.901Z,88.77
2023-04-14T17:15:58.854Z,88.53
2023-04-14T17:18:34.920Z,88.98
2023-04-14T17:21:01.782Z,88.59
2023-04-14T17:23:28.870Z,88.52
2023-04-14T17:25:57.309Z,88.58
2023-04-14T17:28:24.502Z,88.81
2023-04-14T17:30:51.278Z,89.00
2023-04-14T17:33:20.059Z,88.69
2023-04-14T17:35:47.077Z,89.02
2023-04-14T17:38:13.935Z,88.71
2023-04-14T17:40:40.700Z,88.99
2023-04-14T17:43:07.531Z,88.67
2023-04-14T17:45:35.622Z,88.66
2023-04-14T17:48:03.917Z,88.82
2023-04-14T17:50:31.340Z,88.93
2023-04-14T17:52:58.883Z,89.03
2023-04-14T17:55:26.094Z,88.71
2023-04-14T17:57:54.260Z,88.85
2023-04-14T18:00:22.352Z,88.78
2023-04-14T18:02:49.295Z,88.89
2023-04-14T18:05:16.151Z,89.16
2023-04-14T18:07:43.017Z,88.80
2023-04-14T18:10:10.117Z,89.16
2023-04-14T18:12:36.980Z,89.06
2023-04-14T18:15:05.498Z,88.97
2023-04-14T18:17:32.483Z,89.12
2023-04-14T18:20:01.962Z,89.17
2023-04-14T18:22:29.147Z,89.08
2023-04-14T18:24:56.237Z,89.34
2023-04-14T18:29:54.481Z,89.01
2023-04-14T18:32:25.496Z,89.47
2023-04-14T18:34:52.354Z,89.24
2023-04-14T18:37:19.365Z,89.26
2023-04-14T18:39:46.135Z,89.36
2023-04-14T18:42:14.024Z,89.31
2023-04-14T18:44:40.923Z,89.42
2023-04-14T18:47:07.683Z,89.06
2023-04-14T18:49:34.460Z,89.07
2023-04-14T18:52:01.764Z,89.09
2023-04-14T18:54:28.597Z,89.04
2023-04-14T18:56:55.376Z,89.17
2023-04-14T18:59:23.408Z,88.92
2023-04-14T19:01:51.209Z,89.24
2023-04-14T19:04:18.173Z,89.16
2023-04-14T19:06:44.963Z,88.84
2023-04-14T19:09:11.988Z,89.01
2023-04-14T19:11:38.713Z,89.23
2023-04-14T19:14:05.795Z,88.78
2023-04-14T19:16:33.196Z,88.88
2023-04-14T19:19:00.414Z,89.29
2023-04-14T19:21:27.559Z,88.85
2023-04-14T19:23:56.793Z,88.98
2023-04-14T19:26:24.384Z,89.27
2023-04-14T19:28:53.039Z,89.24
2023-04-14T19:31:21.699Z,89.28
2023-04-14T19:33:52.063Z,89.11
2023-04-14T19:36:19.499Z,89.39
2023-04-14T19:38:46.482Z,89.42
2023-04-14T19:41:13.804Z,89.33
2023-04-14T19:43:40.618Z,89.47
2023-04-14T19:46:09.726Z,89.36
2023-04-14T19:48:36.719Z,89.29
2023-04-14T19:51:04.191Z,89.65
2023-04-14T19:53:31.259Z,89.64
2023-04-14T19:55:58.494Z,89.64
2023-04-14T19:58:27.013Z,89.64
2023-04-14T20:00:55.968Z,89.68
2023-04-14T20:03:24.263Z,89.78
2023-04-14T20:05:56.043Z,89.63
2023-04-14T20:08:27.616Z,89.94
2023-04-14T20:10:55.105Z,90.03
2023-04-14T20:13:23.656Z,89.72
2023-04-14T20:15:54.119Z,90.01
2023-04-14T20:18:22.909Z,89.99
2023-04-14T20:20:50.031Z,89.94
2023-04-14T20:23:17.256Z,90.15
2023-04-14T20:25:45.766Z,89.93
2023-04-14T20:28:12.686Z,90.09
2023-04-14T20:30:40.048Z,90.13
2023-04-14T20:33:07.135Z,90.34
2023-04-14T20:35:35.876Z,90.51
2023-04-14T20:38:02.833Z,90.53
2023-04-14T20:40:30.420Z,90.22
2023-04-14T20:42:57.317Z,90.48
2023-04-14T20:45:24.870Z,90.60
2023-04-14T20:47:51.897Z,90.55
2023-04-14T20:50:19.120Z,90.53
2023-04-14T20:52:46.720Z,90.46
2023-04-14T20:55:13.889Z,90.43
2023-04-14T20:57:41.934Z,90.59
2023-04-14T21:00:12.210Z,90.20
2023-04-14T21:02:39.169Z,90.55
2023-04-14T21:05:06.508Z,90.28
2023-04-14T21:07:35.601Z,90.41
2023-04-14T21:10:04.288Z,90.34
2023-04-14T21:12:35.380Z,90.55
2023-04-14T21:15:47.197Z,90.45
2023-04-14T21:17:52.138Z,90.65
2023-04-14T21:20:19.016Z,90.48
2023-04-14T21:22:45.777Z,90.49
2023-04-14T21:25:12.617Z,90.27
2023-04-14T21:27:39.456Z,90.22
2023-04-14T21:30:06.993Z,90.43
2023-04-14T21:32:34.313Z,90.55
2023-04-14T21:35:01.317Z,90.49
2023-04-14T21:37:28.087Z,90.41
2023-04-14T21:39:55.557Z,90.48
2023-04-14T21:42:22.481Z,90.27
2023-04-14T21:44:49.451Z,90.46
2023-04-14T21:47:16.664Z,90.27
2023-04-14T21:49:43.498Z,90.20
2023-04-14T21:52:10.402Z,90.21
2023-04-14T21:54:41.434Z,90.41
2023-04-14T21:57:08.242Z,90.16
2023-04-14T21:59:35.118Z,90.15
2023-04-14T22:02:02.211Z,90.36
2023-04-14T22:04:36.732Z,90.52
2023-04-14T22:07:05.504Z,90.47
2023-04-14T22:09:33.515Z,90.75
2023-04-14T22:12:00.466Z,90.60
2023-04-14T22:14:29.765Z,90.81
2023-04-14T22:16:56.718Z,90.76
2023-04-14T22:19:23.554Z,90.51
2023-04-14T22:21:50.372Z,90.56
2023-04-14T22:24:17.157Z,90.78
2023-04-14T22:26:43.916Z,90.87
2023-04-14T22:29:11.693Z,90.81
2023-04-14T22:31:38.588Z,90.97
2023-04-14T22:34:05.477Z,91.06
2023-04-14T22:36:32.512Z,90.93
2023-04-14T22:38:59.415Z,91.08
2023-04-14T22:41:26.487Z,91.16
2023-04-14T22:43:53.302Z,90.96
2023-04-14T22:46:20.156Z,91.01
2023-04-14T22:48:47.009Z,91.01
2023-04-14T22:51:13.957Z,90.92
2023-04-14T22:53:41.402Z,90.88
2023-04-14T22:56:10.852Z,91.29
2023-04-14T22:58:40.536Z,91.14
2023-04-14T23:01:19.005Z,90.90
2023-04-14T23:03:50.182Z,90.86
2023-04-14T23:06:18.054Z,90.96
2023-04-14T23:08:44.817Z,90.82
2023-04-14T23:11:11.930Z,90.92
2023-04-14T23:13:39.129Z,90.90
2023-04-14T23:16:06.442Z,91.02
2023-04-14T23:18:33.409Z,91.29
2023-04-14T23:21:00.210Z,90.86
2023-04-14T23:23:27.608Z,91.00
2023-04-14T23:25:56.064Z,91.05
2023-04-14T23:28:23.532Z,91.16
2023-04-14T23:30:50.260Z,91.23
2023-04-14T23:33:17.002Z,91.25
2023-04-14T23:35:43.765Z,90.97
2023-04-14T23:38:10.560Z,90.93
2023-04-14T23:40:37.443Z,91.12
2023-04-14T23:43:04.220Z,91.20
2023-04-14T23:45:37.394Z,90.95
2023-04-14T23:48:05.351Z,91.20
2023-04-14T23:50:59.525Z,91.30
2023-04-14T23:53:19.766Z,91.23
2023-04-14T23:55:46.899Z,91.20
2023-04-14T23:58:14.146Z,91.40
